Terminal Aerodrome Forecast
Issued by NWS Amarillo, TX

Home | Current Version | Previous Version | Text Only | Print | Product List | Glossary On
Versions: 1 2 3 4 5 6 7 8 9 10 11 12 13 14 15 16
000
FTUS44 KAMA 040000 AAA
TAFGUY
TAF AMD
KGUY 040028Z 0400/0424 12015KT P6SM SCT030 SCT090
     FM040400 14008KT P6SM BKN090
     FM041400 17014KT P6SM FEW080 SCT200
     FM041900 19015G25KT P6SM SCT090 BKN200=

USA.gov is the U.S. government's official web portal to all federal, state and local government web resources and services.